Time;durP1;ratioP1;P1;durP2;ratioP2;P2;SDS_P1;SDS_P2;PMS_P1;PMS_P2;Temp;Humidity;BMP_temperature;BMP_pressure;BME280_temperature;BME280_humidity;BME280_pressure;Samples;Min_cycle;Max_cycle;Signal;HPM_P1;HPM_P2
2022/04/18 00:00:00;;;;;;;;;16.25;15.75;11.60;32.30;;;;;;5117023;28;8746;-59
2022/04/18 00:02:26;;;;;;;;;3.50;3.50;11.60;33.50;;;;;;5117022;28;8745;-59
2022/04/18 00:04:52;;;;;;;;;11.00;9.75;11.80;34.20;;;;;;5116897;28;9446;-58
2022/04/18 00:07:18;;;;;;;;;9.00;9.00;11.80;33.10;;;;;;5116878;28;8764;-60
2022/04/18 00:09:43;;;;;;;;;8.75;8.75;11.90;33.00;;;;;;5116123;28;8892;-61
2022/04/18 00:12:09;;;;;;;;;9.00;8.25;11.90;32.50;;;;;;5102864;28;8756;-60
2022/04/18 00:14:35;;;;;;;;;5.67;5.67;11.90;32.50;;;;;;5107580;28;8817;-60
2022/04/18 00:17:01;;;;;;;;;7.25;7.00;12.00;32.50;;;;;;5111916;28;8788;-59
2022/04/18 00:19:27;;;;;;;;;8.00;8.00;12.00;32.10;;;;;;5109730;27;8782;-59
2022/04/18 00:21:53;;;;;;;;;6.33;4.00;12.10;31.90;;;;;;5113508;28;9461;-58
2022/04/18 00:24:20;;;;;;;;;9.00;8.00;11.70;32.60;;;;;;5095899;28;8830;-55
2022/04/18 00:26:47;;;;;;;;;5.33;5.33;11.80;32.40;;;;;;5096110;28;8768;-59
2022/04/18 00:29:13;;;;;;;;;4.00;4.00;11.60;33.20;;;;;;5095908;28;8759;-58
2022/04/18 00:31:39;;;;;;;;;5.00;5.00;11.90;33.00;;;;;;5095834;28;8780;-60
2022/04/18 00:34:05;;;;;;;;;8.00;6.00;12.00;32.40;;;;;;5095732;28;8783;-59
2022/04/18 00:36:31;;;;;;;;;5.00;5.00;11.70;32.60;;;;;;5095799;28;8783;-59
2022/04/18 00:38:57;;;;;;;;;2.00;2.00;12.00;32.30;;;;;;5095987;28;8759;-59
2022/04/18 00:41:23;;;;;;;;;6.00;6.00;12.10;32.00;;;;;;5095592;28;8824;-59
2022/04/18 00:43:50;;;;;;;;;7.33;5.00;11.50;33.30;;;;;;5095798;28;8815;-59
2022/04/18 00:46:18;;;;;;;;;5.00;5.00;11.50;33.10;;;;;;5095787;28;8829;-59
2022/04/18 00:48:44;;;;;;;;;5.00;4.00;11.60;32.90;;;;;;5095493;28;8772;-59
2022/04/18 00:51:12;;;;;;;;;4.67;4.67;11.50;33.10;;;;;;5095648;28;9454;-57
2022/04/18 00:53:40;;;;;;;;;8.00;7.25;11.50;33.20;;;;;;5095670;28;8874;-59
2022/04/18 00:56:09;;;;;;;;;7.33;5.67;11.40;33.20;;;;;;5095339;28;8760;-59
2022/04/18 00:58:36;;;;;;;;;9.00;7.00;11.40;33.40;;;;;;5095592;28;8784;-59
2022/04/18 01:01:03;;;;;;;;;7.33;7.33;11.50;33.40;;;;;;5095484;28;8744;-60
2022/04/18 01:03:30;;;;;;;;;10.50;10.50;11.50;33.30;;;;;;5095134;28;8822;-60
2022/04/18 01:06:00;;;;;;;;;11.00;10.00;11.40;33.80;;;;;;5095398;28;8805;-58
2022/04/18 01:08:28;;;;;;;;;9.50;9.50;11.50;33.50;;;;;;5077627;28;8803;-59
2022/04/18 01:10:54;;;;;;;;;9.25;9.00;11.50;34.00;;;;;;5095299;28;8756;-59
2022/04/18 01:13:20;;;;;;;;;11.25;10.00;11.60;33.40;;;;;;5095265;28;8804;-59
2022/04/18 01:15:50;;;;;;;;;15.25;14.00;11.70;33.60;;;;;;5094939;28;8771;-59
2022/04/18 01:18:16;;;;;;;;;12.50;12.50;11.70;33.60;;;;;;5094971;28;8768;-60
2022/04/18 01:20:42;;;;;;;;;14.25;14.25;11.30;34.80;;;;;;5094968;28;8803;-59
2022/04/18 01:23:08;;;;;;;;;14.75;14.75;11.20;34.70;;;;;;5094173;28;8819;-58
2022/04/18 01:31:02;;;;;;;;;27.50;23.50;11.00;35.90;;;;;;5079766;28;8867;-59
2022/04/18 01:33:29;;;;;;;;;13.00;13.00;11.10;36.00;;;;;;5094810;28;8828;-59
2022/04/18 01:35:55;;;;;;;;;12.75;11.75;10.90;35.30;;;;;;5094737;28;8795;-60
2022/04/18 01:38:21;;;;;;;;;12.50;12.50;10.40;36.50;;;;;;5094724;28;8783;-59
2022/04/18 01:40:47;;;;;;;;;13.00;12.00;10.30;36.90;;;;;;5094936;28;8748;-60
2022/04/18 01:43:13;;;;;;;;;19.50;19.50;10.40;36.60;;;;;;5094564;28;8868;-58
2022/04/18 01:45:39;;;;;;;;;19.75;16.50;9.40;39.20;;;;;;5094801;28;8768;-60
2022/04/18 01:48:05;;;;;;;;;16.50;15.25;9.70;39.10;;;;;;5094568;28;8772;-58
2022/04/18 01:50:31;;;;;;;;;17.00;15.75;9.60;39.80;;;;;;5094725;28;8751;-60
2022/04/18 01:52:56;;;;;;;;;13.75;13.75;9.90;39.10;;;;;;5094528;28;8861;-60
2022/04/18 01:55:22;;;;;;;;;13.25;13.25;9.90;38.70;;;;;;5094771;28;8866;-61
2022/04/18 01:57:48;;;;;;;;;10.75;10.75;10.10;38.50;;;;;;5094487;28;9406;-60
2022/04/18 02:00:14;;;;;;;;;14.75;14.25;9.90;38.90;;;;;;5094798;28;8748;-62
2022/04/18 02:02:40;;;;;;;;;11.50;11.50;9.80;38.70;;;;;;5094733;28;8743;-58
2022/04/18 02:05:09;;;;;;;;;13.25;12.50;9.60;39.60;;;;;;5094298;28;8804;-58
2022/04/18 02:07:35;;;;;;;;;14.50;14.50;10.00;39.00;;;;;;5094670;28;8902;-57
2022/04/18 02:10:02;;;;;;;;;13.25;13.25;9.80;39.10;;;;;;5094728;28;8779;-60
2022/04/18 02:12:28;;;;;;;;;15.00;15.00;9.60;39.70;;;;;;5094504;28;8760;-61
2022/04/18 02:14:54;;;;;;;;;17.75;17.75;9.70;39.70;;;;;;5094593;28;8776;-58
2022/04/18 02:17:19;;;;;;;;;17.00;16.00;9.40;40.40;;;;;;5094512;28;8844;-59
2022/04/18 02:19:46;;;;;;;;;16.50;15.00;9.60;40.00;;;;;;5094500;28;8870;-59
2022/04/18 02:22:14;;;;;;;;;16.00;13.75;8.90;41.40;;;;;;5094196;28;8784;-57
2022/04/18 02:24:40;;;;;;;;;16.25;14.00;8.80;41.80;;;;;;5094186;28;8792;-59
2022/04/18 02:27:09;;;;;;;;;16.75;14.75;9.10;41.30;;;;;;5094110;28;8844;-59
2022/04/18 02:29:35;;;;;;;;;5.00;4.75;9.50;40.40;;;;;;5094299;28;8762;-59
2022/04/18 02:34:45;;;;;;;;;18.00;18.00;9.50;40.70;;;;;;5098128;28;8767;-59
2022/04/18 02:37:11;;;;;;;;;20.00;19.75;9.50;40.30;;;;;;5098223;28;8771;-59
2022/04/18 02:39:37;;;;;;;;;18.25;18.25;9.50;40.20;;;;;;5097963;28;8768;-59
2022/04/18 02:42:03;;;;;;;;;16.25;13.00;9.60;40.20;;;;;;5097858;28;8837;-59
2022/04/18 02:44:29;;;;;;;;;19.00;16.00;9.00;41.30;;;;;;5098156;28;8919;-59
2022/04/18 02:46:55;;;;;;;;;16.50;15.00;8.60;42.70;;;;;;5097786;28;9847;-59
2022/04/18 02:49:21;;;;;;;;;20.75;19.25;8.80;42.60;;;;;;5097789;28;8736;-59
2022/04/18 02:51:47;;;;;;;;;17.50;15.50;9.20;41.50;;;;;;5097964;28;8752;-59
2022/04/18 02:54:12;;;;;;;;;19.00;16.50;9.30;41.10;;;;;;5097661;28;8775;-57
2022/04/18 02:56:38;;;;;;;;;15.75;15.75;9.40;41.20;;;;;;5097623;28;8780;-60
2022/04/18 02:59:04;;;;;;;;;13.00;12.25;9.10;41.80;;;;;;5097803;28;8768;-60
2022/04/18 03:01:29;;;;;;;;;16.75;16.75;9.20;41.80;;;;;;5097741;28;8787;-59
2022/04/18 03:03:55;;;;;;;;;16.75;13.00;9.20;41.70;;;;;;5097649;28;8796;-60
2022/04/18 03:06:21;;;;;;;;;21.00;20.50;9.40;41.70;;;;;;5097704;28;8752;-58
2022/04/18 03:08:47;;;;;;;;;17.75;17.75;9.20;41.80;;;;;;5097519;28;8786;-57
2022/04/18 03:11:13;;;;;;;;;20.75;18.00;9.30;41.60;;;;;;5097239;28;8882;-60
2022/04/18 03:13:44;;;;;;;;;20.25;19.75;9.30;42.20;;;;;;5097560;28;8807;-60
2022/04/18 03:16:11;;;;;;;;;25.50;22.75;9.30;42.00;;;;;;5097522;28;8877;-59
2022/04/18 03:18:37;;;;;;;;;26.00;24.00;9.30;41.90;;;;;;5097207;28;8899;-59
2022/04/18 03:21:04;;;;;;;;;19.75;19.50;9.00;42.00;;;;;;5097004;28;8772;-61
2022/04/18 03:23:30;;;;;;;;;19.00;17.75;9.10;41.80;;;;;;5097280;28;8795;-59
2022/04/18 03:25:57;;;;;;;;;21.75;19.50;8.60;43.00;;;;;;5097243;28;8767;-59
2022/04/18 03:28:23;;;;;;;;;22.50;21.50;8.60;43.30;;;;;;5079160;28;8760;-60
2022/04/18 03:30:49;;;;;;;;;23.50;22.00;8.50;43.50;;;;;;5096949;28;9427;-58
2022/04/18 03:33:15;;;;;;;;;15.50;12.50;8.60;43.10;;;;;;5096883;28;8845;-57
2022/04/18 03:39:50;;;;;;;;;21.00;17.50;7.50;45.60;;;;;;5097095;28;8752;-61
2022/04/18 03:41:14;;;;;;;;;16.25;14.75;7.50;46.10;;;;;;5110227;28;8750;-60
2022/04/18 03:43:40;;;;;;;;;16.00;16.00;7.80;45.40;;;;;;5100850;28;8885;-59
2022/04/18 03:46:06;;;;;;;;;25.75;24.75;7.40;46.30;;;;;;5116540;28;8746;-59
2022/04/18 03:48:31;;;;;;;;;26.50;25.00;7.40;46.80;;;;;;5117248;28;9427;-55
2022/04/18 03:50:57;;;;;;;;;20.75;20.50;7.20;47.10;;;;;;5117224;28;8765;-58
2022/04/18 03:53:23;;;;;;;;;21.25;21.25;7.20;47.80;;;;;;5117199;28;8750;-58
2022/04/18 03:55:49;;;;;;;;;21.25;19.00;7.50;46.40;;;;;;5107280;28;8802;-59
2022/04/18 03:58:14;;;;;;;;;25.00;19.25;8.00;45.50;;;;;;5109439;28;8864;-61
2022/04/18 04:00:42;;;;;;;;;13.50;12.50;8.30;44.60;;;;;;5102126;28;8884;-59
2022/04/18 04:03:08;;;;;;;;;19.50;19.50;7.70;45.80;;;;;;5117028;28;8753;-60
2022/04/18 04:05:34;;;;;;;;;19.00;18.50;7.50;46.60;;;;;;5116973;28;8859;-60
2022/04/18 04:08:00;;;;;;;;;24.00;22.25;7.40;46.60;;;;;;5116697;28;9569;-59
2022/04/18 04:10:26;;;;;;;;;34.75;28.25;7.00;47.60;;;;;;5116748;28;8871;-59
2022/04/18 04:12:52;;;;;;;;;21.25;16.75;7.40;47.40;;;;;;5116489;28;8848;-57
2022/04/18 04:15:18;;;;;;;;;20.00;20.00;7.40;47.20;;;;;;5116541;28;8769;-57
2022/04/18 04:17:43;;;;;;;;;19.00;17.50;7.50;46.60;;;;;;5116624;28;9454;-57
2022/04/18 04:20:09;;;;;;;;;24.00;23.00;7.50;46.90;;;;;;5116082;28;8761;-60
2022/04/18 04:22:35;;;;;;;;;26.00;26.00;7.90;45.90;;;;;;5116104;28;9487;-60
2022/04/18 04:25:01;;;;;;;;;22.75;19.75;7.80;46.20;;;;;;5116484;28;8802;-60
2022/04/18 04:27:26;;;;;;;;;26.75;26.00;7.80;46.70;;;;;;5116688;28;8785;-61
2022/04/18 04:29:52;;;;;;;;;32.00;25.00;7.90;46.50;;;;;;5116235;28;8754;-59
2022/04/18 04:32:18;;;;;;;;;30.25;30.25;8.10;46.10;;;;;;5116134;28;8888;-60
2022/04/18 04:34:44;;;;;;;;;29.00;28.00;8.30;45.40;;;;;;5116116;28;8770;-58
2022/04/18 04:37:10;;;;;;;;;26.75;24.75;8.40;45.30;;;;;;5116244;28;8757;-60
2022/04/18 04:39:35;;;;;;;;;25.25;24.00;7.40;47.20;;;;;;5112354;27;8795;-59
2022/04/18 04:42:01;;;;;;;;;25.00;24.00;7.40;47.80;;;;;;5103547;28;8874;-56
2022/04/18 04:44:27;;;;;;;;;27.00;26.25;6.90;48.90;;;;;;5116312;28;8813;-56
2022/04/18 04:46:53;;;;;;;;;26.25;26.25;6.80;49.50;;;;;;5116129;28;8761;-57
2022/04/18 04:49:18;;;;;;;;;29.50;26.00;6.70;48.90;;;;;;5109707;28;8770;-57
2022/04/18 04:51:44;;;;;;;;;28.00;26.25;6.80;49.70;;;;;;5106198;28;8773;-60
2022/04/18 04:54:10;;;;;;;;;34.75;33.25;6.70;50.00;;;;;;5115973;28;8781;-57
2022/04/18 04:56:36;;;;;;;;;40.50;37.25;7.10;48.90;;;;;;5122354;27;8814;-59
2022/04/18 04:59:04;;;;;;;;;41.00;37.25;6.80;50.10;;;;;;5135834;27;8767;-59
2022/04/18 05:01:29;;;;;;;;;34.00;28.50;7.10;49.10;;;;;;5136407;27;8767;-61
2022/04/18 05:03:55;;;;;;;;;36.00;32.00;7.00;49.40;;;;;;5123493;27;8913;-63
2022/04/18 05:06:21;;;;;;;;;28.75;26.25;6.70;49.90;;;;;;5094465;28;8822;-59
2022/04/18 05:08:46;;;;;;;;;29.50;26.25;7.20;49.00;;;;;;5095000;28;8752;-56
2022/04/18 05:11:12;;;;;;;;;31.00;28.00;7.40;48.00;;;;;;5100769;28;8854;-56
2022/04/18 05:13:38;;;;;;;;;31.50;26.75;7.80;47.20;;;;;;5094667;28;8893;-61
2022/04/18 05:16:04;;;;;;;;;21.75;20.50;7.50;47.60;;;;;;5094864;28;8832;-60
2022/04/18 05:18:30;;;;;;;;;23.50;22.75;6.90;49.30;;;;;;5094935;28;8764;-57
2022/04/18 05:20:57;;;;;;;;;26.75;26.00;7.10;49.80;;;;;;5095100;28;8887;-57
2022/04/18 05:23:23;;;;;;;;;22.50;21.50;6.90;50.10;;;;;;5092735;28;8796;-59
2022/04/18 05:25:48;;;;;;;;;24.50;24.50;7.00;50.10;;;;;;5076845;28;8804;-57
2022/04/18 05:28:14;;;;;;;;;26.50;25.50;7.50;48.80;;;;;;5094795;28;8933;-58
2022/04/18 05:30:41;;;;;;;;;31.50;28.75;7.90;47.80;;;;;;5094998;28;8853;-57
2022/04/18 05:33:07;;;;;;;;;28.25;28.25;7.60;48.60;;;;;;5094754;28;8744;-58
2022/04/18 05:35:33;;;;;;;;;34.75;31.75;7.60;49.60;;;;;;5094801;28;8771;-60
2022/04/18 05:37:59;;;;;;;;;26.00;23.25;7.70;49.00;;;;;;5094363;28;8793;-58
2022/04/18 05:40:25;;;;;;;;;37.75;29.75;7.80;48.50;;;;;;5094855;28;8790;-59
2022/04/18 05:42:53;;;;;;;;;28.75;27.00;8.00;48.10;;;;;;5077147;28;9469;-56
2022/04/18 05:45:19;;;;;;;;;28.50;26.50;7.60;48.60;;;;;;5094809;28;8788;-59
2022/04/18 05:47:45;;;;;;;;;26.75;22.00;8.00;48.30;;;;;;5094436;28;8826;-56
2022/04/18 05:50:10;;;;;;;;;30.25;29.75;8.50;47.20;;;;;;5076652;28;8768;-58
2022/04/18 05:52:36;;;;;;;;;26.00;25.75;8.10;48.20;;;;;;5094625;28;8752;-57
2022/04/18 05:55:02;;;;;;;;;24.75;22.75;8.10;47.80;;;;;;5094452;28;8787;-55
2022/04/18 05:57:28;;;;;;;;;23.50;22.50;7.90;47.90;;;;;;5094470;28;8879;-57
2022/04/18 05:59:53;;;;;;;;;29.25;22.75;8.20;47.70;;;;;;5094662;28;8821;-57
2022/04/18 06:02:19;;;;;;;;;26.75;25.50;8.10;49.40;;;;;;5094425;28;8791;-57
2022/04/18 06:04:45;;;;;;;;;25.00;25.00;7.80;49.00;;;;;;5094634;28;8812;-58
2022/04/18 06:07:11;;;;;;;;;29.50;26.00;7.70;49.70;;;;;;5094615;28;8748;-57
2022/04/18 06:09:37;;;;;;;;;24.00;24.00;8.40;48.40;;;;;;5098401;28;9419;-58
2022/04/18 06:12:03;;;;;;;;;33.25;24.25;8.40;47.60;;;;;;5098637;28;8751;-57
2022/04/18 06:14:29;;;;;;;;;25.25;23.00;7.90;49.10;;;;;;5098775;28;8787;-58
2022/04/18 06:16:54;;;;;;;;;27.00;26.50;7.90;49.60;;;;;;5098107;28;8779;-56
2022/04/18 06:19:20;;;;;;;;;22.00;22.00;8.30;48.60;;;;;;5098089;28;8787;-57
2022/04/18 06:21:48;;;;;;;;;22.25;22.00;8.10;49.20;;;;;;5097916;28;8815;-57
2022/04/18 06:24:14;;;;;;;;;25.00;20.75;7.70;50.70;;;;;;5098450;28;8845;-57
2022/04/18 06:26:40;;;;;;;;;20.00;20.00;8.20;49.20;;;;;;5097915;28;8788;-57
2022/04/18 06:29:05;;;;;;;;;17.00;17.00;8.40;48.60;;;;;;5097669;28;8772;-57
2022/04/18 06:31:31;;;;;;;;;25.50;21.50;8.40;48.40;;;;;;5098232;28;8760;-57
2022/04/18 06:33:57;;;;;;;;;20.00;17.50;8.30;49.50;;;;;;5097962;28;8764;-55
2022/04/18 06:36:23;;;;;;;;;18.00;18.00;8.60;48.80;;;;;;5114040;28;8780;-57
2022/04/18 06:38:48;;;;;;;;;12.00;12.00;8.70;48.70;;;;;;5097989;28;8752;-58
2022/04/18 06:41:14;;;;;;;;;17.25;16.75;8.60;48.40;;;;;;5097797;28;8840;-56
2022/04/18 06:43:40;;;;;;;;;14.75;14.25;8.40;49.20;;;;;;5097188;28;8854;-55
2022/04/18 06:46:06;;;;;;;;;18.75;18.75;8.30;50.00;;;;;;5097971;28;8752;-58
2022/04/18 06:48:31;;;;;;;;;13.25;13.25;8.50;50.00;;;;;;5098041;28;8744;-56
2022/04/18 06:50:57;;;;;;;;;15.75;15.00;8.70;49.40;;;;;;5097673;28;8759;-57
2022/04/18 06:53:23;;;;;;;;;23.00;21.00;8.40;48.80;;;;;;5097867;28;8747;-56
2022/04/18 06:58:32;;;;;;;;;21.50;18.75;7.70;52.40;;;;;;5097147;28;8744;-58
2022/04/18 07:00:58;;;;;;;;;17.00;16.75;7.80;51.50;;;;;;5097754;28;8791;-54
2022/04/18 07:03:26;;;;;;;;;19.25;19.25;8.10;50.60;;;;;;5097752;28;8747;-56
2022/04/18 07:05:51;;;;;;;;;17.25;16.50;8.10;50.10;;;;;;5097465;28;8778;-56
2022/04/18 07:08:17;;;;;;;;;7.75;6.75;8.20;50.50;;;;;;5097593;28;8751;-57
2022/04/18 07:10:43;;;;;;;;;18.50;17.25;8.20;50.20;;;;;;5079770;28;8759;-55
2022/04/18 07:13:09;;;;;;;;;17.00;17.00;8.50;49.80;;;;;;5096788;28;8888;-56
2022/04/18 07:15:34;;;;;;;;;17.75;16.25;8.70;48.70;;;;;;5113210;28;8775;-58
2022/04/18 07:18:01;;;;;;;;;15.00;15.00;8.70;48.70;;;;;;5097192;28;8791;-56
2022/04/18 07:20:28;;;;;;;;;14.25;13.00;8.80;48.10;;;;;;5095814;28;8829;-59
2022/04/18 07:22:54;;;;;;;;;16.50;16.50;9.10;48.20;;;;;;5097008;28;8792;-57
2022/04/18 07:25:20;;;;;;;;;18.75;18.25;9.50;47.10;;;;;;5097203;28;9507;-55
2022/04/18 07:27:46;;;;;;;;;10.25;10.25;9.50;45.50;;;;;;5097026;28;9413;-57
2022/04/18 07:30:12;;;;;;;;;16.25;14.00;9.60;45.40;;;;;;5097159;28;8772;-54
2022/04/18 07:32:44;;;;;;;;;16.25;16.25;9.50;45.20;;;;;;5096917;28;8786;-56
2022/04/18 07:35:11;;;;;;;;;13.75;13.75;9.20;46.00;;;;;;5096907;28;8779;-58
2022/04/18 07:38:48;;;;;;;;;11.50;11.50;9.10;46.20;;;;;;5097071;28;8763;-57
2022/04/18 07:40:23;;;;;;;;;16.50;14.50;9.10;46.70;;;;;;5096706;28;8776;-57
2022/04/18 07:42:49;;;;;;;;;13.25;11.50;9.20;46.60;;;;;;5096776;28;8879;-56
2022/04/18 07:45:14;;;;;;;;;15.25;12.50;9.30;46.30;;;;;;5096586;28;8804;-57
2022/04/18 07:47:40;;;;;;;;;17.25;16.00;9.30;46.30;;;;;;5096929;28;8758;-52
2022/04/18 07:50:06;;;;;;;;;15.50;15.50;9.40;45.30;;;;;;5096403;28;8776;-55
2022/04/18 07:52:32;;;;;;;;;18.75;17.00;8.90;46.40;;;;;;5096441;28;8836;-55
2022/04/18 07:54:58;;;;;;;;;18.00;17.00;9.00;47.20;;;;;;5096761;28;8780;-55
2022/04/18 07:57:23;;;;;;;;;15.75;14.50;9.00;47.50;;;;;;5096747;28;8767;-54
2022/04/18 07:59:49;;;;;;;;;16.00;16.00;9.00;47.50;;;;;;5096419;28;8783;-56
2022/04/18 08:02:15;;;;;;;;;19.50;17.25;9.20;47.40;;;;;;5096575;28;8783;-57
2022/04/18 08:04:40;;;;;;;;;20.75;18.75;9.60;46.40;;;;;;5096443;28;8776;-55
2022/04/18 08:07:06;;;;;;;;;16.75;16.75;9.80;45.20;;;;;;5096449;28;8775;-55
2022/04/18 08:09:32;;;;;;;;;19.50;17.25;10.00;44.90;;;;;;5096421;28;8748;-55
2022/04/18 08:11:58;;;;;;;;;14.25;12.00;10.10;44.50;;;;;;5096274;28;8775;-56
2022/04/18 08:14:23;;;;;;;;;13.00;11.75;10.00;44.40;;;;;;5096367;28;8799;-58
2022/04/18 08:16:49;;;;;;;;;20.00;18.25;10.00;44.40;;;;;;5096231;28;8763;-58
2022/04/18 08:19:15;;;;;;;;;15.50;14.75;10.10;44.20;;;;;;5096222;28;8784;-56
2022/04/18 08:21:41;;;;;;;;;19.00;18.00;10.30;44.60;;;;;;5095671;28;9350;-57
2022/04/18 08:24:06;;;;;;;;;12.75;12.75;10.50;43.00;;;;;;5095803;28;8815;-56
2022/04/18 08:26:32;;;;;;;;;15.50;15.50;10.50;42.40;;;;;;5096170;28;8767;-57
2022/04/18 08:28:58;;;;;;;;;15.50;15.50;10.50;43.50;;;;;;5096127;28;8799;-57
2022/04/18 08:31:24;;;;;;;;;19.00;17.25;10.90;43.60;;;;;;5095655;28;8776;-55
2022/04/18 08:33:49;;;;;;;;;22.50;17.50;11.20;42.10;;;;;;5095979;28;8771;-56
2022/04/18 08:36:15;;;;;;;;;20.25;20.00;11.40;41.00;;;;;;5095905;28;8873;-57
2022/04/18 08:38:41;;;;;;;;;15.00;15.00;12.10;40.30;;;;;;5095650;28;8821;-56
2022/04/18 08:41:10;;;;;;;;;13.00;13.00;12.00;39.80;;;;;;5095511;28;8775;-55
2022/04/18 08:43:36;;;;;;;;;17.25;16.50;12.00;40.90;;;;;;5095611;28;8978;-55
2022/04/18 08:46:05;;;;;;;;;18.75;18.00;11.40;41.10;;;;;;5095646;28;8776;-55
2022/04/18 08:54:03;;;;;;;;;17.75;17.75;12.00;41.20;;;;;;5095314;28;8740;-57
2022/04/18 08:56:29;;;;;;;;;20.75;17.25;12.10;40.40;;;;;;5095102;28;8756;-54
2022/04/18 08:58:55;;;;;;;;;16.00;14.00;12.40;38.90;;;;;;5095232;28;8784;-56
2022/04/18 09:01:21;;;;;;;;;20.25;17.75;12.20;37.20;;;;;;5095435;28;8744;-57
2022/04/18 09:03:47;;;;;;;;;17.33;15.67;12.40;38.90;;;;;;5095073;28;8810;-56
2022/04/18 09:06:14;;;;;;;;;15.75;15.75;11.90;38.30;;;;;;5095039;28;8768;-55
2022/04/18 09:08:55;;;;;;;;;17.00;17.00;11.70;39.00;;;;;;5095303;28;8740;-56
2022/04/18 09:11:32;;;;;;;;;16.50;16.50;11.80;37.70;;;;;;5095069;28;8760;-57
2022/04/18 09:14:13;;;;;;;;;20.00;19.50;11.90;38.30;;;;;;5095221;28;8788;-53
2022/04/18 09:16:41;;;;;;;;;18.00;16.50;12.20;38.90;;;;;;5094913;28;9436;-55
2022/04/18 09:19:11;;;;;;;;;17.67;16.33;12.40;39.70;;;;;;5095172;28;8767;-57
2022/04/18 09:21:54;;;;;;;;;17.67;16.00;12.80;38.10;;;;;;5094834;28;8837;-56
2022/04/18 09:24:32;;;;;;;;;21.00;18.67;12.90;36.80;;;;;;5094779;28;8863;-55
2022/04/18 09:27:29;;;;;;;;;18.67;17.33;13.10;35.90;;;;;;5094874;28;8784;-56
2022/04/18 09:30:05;;;;;;;;;12.00;11.00;13.40;35.70;;;;;;5012491;28;8878;-56
2022/04/18 09:32:31;;;;;;;;;9.33;9.33;13.40;34.10;;;;;;5012759;28;9429;-57
2022/04/18 09:35:04;;;;;;;;;9.33;9.33;14.20;33.40;;;;;;5012691;28;8878;-56
2022/04/18 09:37:31;;;;;;;;;13.67;8.33;14.80;30.90;;;;;;5012574;28;8784;-56
2022/04/18 09:39:57;;;;;;;;;9.00;9.00;14.90;29.90;;;;;;5012592;28;8882;-56
2022/04/18 09:42:26;;;;;;;;;9.00;8.33;14.90;30.70;;;;;;5011624;28;8796;-57
2022/04/18 09:44:52;;;;;;;;;9.67;9.67;15.00;30.10;;;;;;5012531;28;8812;-57
2022/04/18 09:47:22;;;;;;;;;11.00;11.00;15.10;32.20;;;;;;5012369;28;8760;-56
2022/04/18 09:49:49;;;;;;;;;8.00;8.00;15.30;31.00;;;;;;5012588;28;9554;-56
2022/04/18 09:52:17;;;;;;;;;12.00;12.00;15.40;29.40;;;;;;5012405;28;8764;-56
2022/04/18 09:54:53;;;;;;;;;13.33;12.33;15.10;27.90;;;;;;5012445;28;8773;-56
2022/04/18 09:57:26;;;;;;;;;14.67;13.33;14.00;28.40;;;;;;5012383;28;8776;-55
2022/04/18 09:59:55;;;;;;;;;12.00;11.00;14.00;29.40;;;;;;5012456;28;8784;-56
2022/04/18 10:02:21;;;;;;;;;11.00;11.00;13.90;28.80;;;;;;5012325;28;8846;-55
2022/04/18 10:04:48;;;;;;;;;11.00;11.00;13.30;29.10;;;;;;5012344;28;9459;-57
2022/04/18 10:07:15;;;;;;;;;17.00;14.33;13.40;30.40;;;;;;5086392;28;8786;-55
2022/04/18 10:09:41;;;;;;;;;9.33;8.00;14.10;29.70;;;;;;5094198;28;8844;-57
2022/04/18 10:12:08;;;;;;;;;10.00;10.00;14.30;29.10;;;;;;5094355;28;8763;-57
2022/04/18 10:14:35;;;;;;;;;12.67;10.00;15.10;28.80;;;;;;5094559;28;8795;-54
2022/04/18 10:17:02;;;;;;;;;7.00;7.00;15.00;28.20;;;;;;5094295;28;9644;-57
2022/04/18 10:19:36;;;;;;;;;10.67;10.67;15.10;28.20;;;;;;5094365;28;8752;-57
2022/04/18 10:22:41;;;;;;;;;10.33;10.33;15.40;28.40;;;;;;5093878;28;8799;-57
2022/04/18 10:25:43;;;;;;;;;8.33;7.67;16.00;28.80;;;;;;5094179;28;9529;-57
2022/04/18 10:28:25;;;;;;;;;6.00;6.00;15.60;27.60;;;;;;5094407;28;8747;-56
2022/04/18 10:30:58;;;;;;;;;15.00;13.33;15.60;27.90;;;;;;5094127;28;8760;-57
2022/04/18 10:33:24;;;;;;;;;13.00;10.67;15.40;27.30;;;;;;5094015;28;8763;-55
2022/04/18 10:36:04;;;;;;;;;8.00;8.00;15.50;27.80;;;;;;5094121;28;8771;-56
2022/04/18 10:38:37;;;;;;;;;8.00;7.00;16.10;27.40;;;;;;5094255;28;8744;-56
2022/04/18 10:41:16;;;;;;;;;9.33;7.67;16.10;27.00;;;;;;5094323;28;9513;-57
2022/04/18 10:43:53;;;;;;;;;6.00;6.00;15.60;27.30;;;;;;5094282;28;8875;-55
2022/04/18 10:46:20;;;;;;;;;6.00;6.00;15.90;27.50;;;;;;5094136;28;8841;-56
2022/04/18 10:48:58;;;;;;;;;6.00;6.00;16.50;26.50;;;;;;5094202;28;8796;-56
2022/04/18 10:51:27;;;;;;;;;6.67;6.33;16.60;26.20;;;;;;5094207;28;8771;-58
2022/04/18 10:54:04;;;;;;;;;12.00;11.00;16.30;26.50;;;;;;5101284;28;8774;-54
2022/04/18 10:56:46;;;;;;;;;8.67;7.67;16.40;26.70;;;;;;5102330;28;8764;-57
2022/04/18 10:59:13;;;;;;;;;7.67;7.33;16.80;25.90;;;;;;5110204;28;8853;-56
2022/04/18 11:01:39;;;;;;;;;6.00;6.00;15.90;25.80;;;;;;5118054;28;8770;-56
2022/04/18 11:04:08;;;;;;;;;8.00;6.33;15.80;26.50;;;;;;5114655;28;8900;-53
2022/04/18 11:06:38;;;;;;;;;7.67;7.67;15.70;26.20;;;;;;5106264;28;8779;-54
2022/04/18 11:09:06;;;;;;;;;10.33;10.33;15.90;26.40;;;;;;5108548;28;8786;-56
2022/04/18 11:11:54;;;;;;;;;9.00;8.00;15.40;25.50;;;;;;5097355;28;8771;-55
2022/04/18 11:14:23;;;;;;;;;9.33;8.67;15.30;27.00;;;;;;5097260;28;8795;-53
2022/04/18 11:17:00;;;;;;;;;8.00;8.00;16.00;26.00;;;;;;5099688;28;8766;-56
2022/04/18 11:19:52;;;;;;;;;9.00;9.00;16.00;25.60;;;;;;5108441;28;8926;-55
2022/04/18 11:22:20;;;;;;;;;7.67;7.33;16.70;25.20;;;;;;5093929;28;8825;-52
2022/04/18 11:24:49;;;;;;;;;6.00;6.00;17.00;24.80;;;;;;5107053;28;8882;-58
2022/04/18 11:27:20;;;;;;;;;9.33;8.33;17.30;24.50;;;;;;5097701;28;8802;-55
2022/04/18 11:29:56;;;;;;;;;5.00;5.00;17.40;25.20;;;;;;5108742;28;8777;-57
2022/04/18 11:32:24;;;;;;;;;8.33;6.67;18.20;25.00;;;;;;5117412;28;8742;-55
2022/04/18 11:34:52;;;;;;;;;8.00;8.00;18.00;25.00;;;;;;5117569;28;8754;-56
2022/04/18 11:37:27;;;;;;;;;9.00;9.00;17.90;25.80;;;;;;5117259;28;8762;-54
2022/04/18 11:39:58;;;;;;;;;17.67;17.33;18.20;23.70;;;;;;5108075;28;8773;-55
2022/04/18 11:42:27;;;;;;;;;15.00;13.00;18.10;25.20;;;;;;5096544;28;8767;-55
2022/04/18 11:44:55;;;;;;;;;9.00;9.00;18.10;25.10;;;;;;5096806;28;9503;-53
2022/04/18 11:47:27;;;;;;;;;9.67;9.00;18.30;23.80;;;;;;5096834;28;8790;-55
2022/04/18 11:50:01;;;;;;;;;9.00;9.00;18.40;23.70;;;;;;5098040;28;8797;-54
2022/04/18 11:52:29;;;;;;;;;5.67;5.33;18.10;24.00;;;;;;5105462;28;8775;-53
2022/04/18 11:55:11;;;;;;;;;5.33;5.33;18.10;25.90;;;;;;5096689;28;8767;-53
2022/04/18 11:57:38;;;;;;;;;9.00;9.00;18.50;26.00;;;;;;5113602;27;8874;-54
2022/04/18 12:00:10;;;;;;;;;9.00;8.33;19.10;23.70;;;;;;5114544;28;8808;-55
2022/04/18 12:08:10;;;;;;;;;9.00;9.00;18.90;24.40;;;;;;5115438;28;8726;-59
2022/04/18 12:10:39;;;;;;;;;7.00;7.00;19.10;23.60;;;;;;5115322;28;9418;-59
2022/04/18 12:13:11;;;;;;;;;12.67;12.33;19.20;22.60;;;;;;5114237;28;8932;-59
2022/04/18 12:15:37;;;;;;;;;6.00;4.00;18.10;22.60;;;;;;5115637;28;8763;-59
2022/04/18 12:18:15;;;;;;;;;9.67;9.00;17.40;23.60;;;;;;5116411;28;8775;-63
2022/04/18 12:20:51;;;;;;;;;10.33;10.33;16.50;24.90;;;;;;5113845;28;8849;-60
2022/04/18 12:23:18;;;;;;;;;10.00;10.00;17.40;24.40;;;;;;5111276;28;8799;-62
2022/04/18 12:25:49;;;;;;;;;6.33;6.33;18.00;23.90;;;;;;5114824;28;8775;-63
2022/04/18 12:28:18;;;;;;;;;8.00;8.00;18.50;23.30;;;;;;5111414;28;9416;-61
2022/04/18 12:30:45;;;;;;;;;6.67;6.67;19.60;23.30;;;;;;5110022;28;8817;-59
2022/04/18 12:33:12;;;;;;;;;4.67;4.67;19.80;22.10;;;;;;5112778;28;8743;-59
2022/04/18 12:35:42;;;;;;;;;8.67;8.00;19.00;22.50;;;;;;5114084;28;8744;-60
2022/04/18 12:38:10;;;;;;;;;6.00;6.00;18.80;23.50;;;;;;5112113;28;8851;-60
2022/04/18 12:41:02;;;;;;;;;9.00;7.67;18.20;22.20;;;;;;5120054;27;8799;-61
2022/04/18 12:43:32;;;;;;;;;6.00;6.00;18.60;22.60;;;;;;5131984;27;9498;-60
2022/04/18 12:46:06;;;;;;;;;9.00;8.67;19.20;22.10;;;;;;5114113;28;8781;-59
2022/04/18 12:48:34;;;;;;;;;9.00;9.00;18.90;21.80;;;;;;5114603;28;8834;-63
2022/04/18 12:51:02;;;;;;;;;12.67;9.33;17.90;22.80;;;;;;5114473;28;8738;-59
2022/04/18 12:53:52;;;;;;;;;8.00;8.00;17.40;23.00;;;;;;5114479;28;8863;-59
2022/04/18 12:56:23;;;;;;;;;7.33;7.33;17.10;23.90;;;;;;5111005;28;8762;-59
2022/04/18 12:59:09;;;;;;;;;13.33;12.33;16.20;24.60;;;;;;5113185;28;8829;-61
2022/04/18 13:01:39;;;;;;;;;8.00;8.00;15.20;25.20;;;;;;5109802;28;8779;-60
2022/04/18 13:04:20;;;;;;;;;6.00;6.00;14.30;27.10;;;;;;5111573;28;8804;-60
2022/04/18 13:07:04;;;;;;;;;6.67;6.67;14.60;25.70;;;;;;5112574;28;9717;-61
2022/04/18 13:09:30;;;;;;;;;7.00;7.00;15.30;26.10;;;;;;5113890;27;8774;-62
2022/04/18 13:12:01;;;;;;;;;15.67;13.67;15.40;26.10;;;;;;5115409;28;8763;-61
2022/04/18 13:14:27;;;;;;;;;10.33;10.00;15.20;26.80;;;;;;5115793;28;8795;-61
2022/04/18 13:17:08;;;;;;;;;12.00;11.67;15.10;27.60;;;;;;5114944;28;8766;-63